createdAt,value
2022-12-18T00:01:19.881Z,4.88
2022-12-18T00:03:47.186Z,4.93
2022-12-18T00:06:14.781Z,4.85
2022-12-18T00:08:42.629Z,4.82
2022-12-18T00:11:12.545Z,5.30
2022-12-18T00:13:40.163Z,5.38
2022-12-18T00:16:10.571Z,5.03
2022-12-18T00:18:38.029Z,4.97
2022-12-18T00:21:06.971Z,5.25
2022-12-18T00:23:36.092Z,5.28
2022-12-18T00:26:05.751Z,4.90
2022-12-18T00:28:32.812Z,5.60
2022-12-18T00:31:08.356Z,4.90
2022-12-18T00:33:36.208Z,5.40
2022-12-18T00:36:08.315Z,4.65
2022-12-18T00:38:35.246Z,5.35
2022-12-18T00:41:02.301Z,4.68
2022-12-18T00:43:29.030Z,4.60
2022-12-18T00:45:55.957Z,4.88
2022-12-18T00:48:22.737Z,5.65
2022-12-18T00:50:50.835Z,5.75
2022-12-18T00:53:17.896Z,5.10
2022-12-18T00:55:46.107Z,5.00
2022-12-18T00:58:15.012Z,5.28
2022-12-18T01:00:41.980Z,5.03
2022-12-18T01:03:14.657Z,5.53
2022-12-18T01:05:43.427Z,5.05
2022-12-18T01:08:10.461Z,5.60
2022-12-18T01:10:37.133Z,4.80
2022-12-18T01:13:03.850Z,5.15
2022-12-18T01:15:30.274Z,4.93
2022-12-18T01:17:56.904Z,5.10
2022-12-18T01:20:23.528Z,5.45
2022-12-18T01:22:50.023Z,5.38
2022-12-18T01:25:16.610Z,4.65
2022-12-18T01:27:43.843Z,5.30
2022-12-18T01:30:11.158Z,4.80
2022-12-18T01:32:37.814Z,5.22
2022-12-18T01:35:04.823Z,5.00
2022-12-18T01:37:31.398Z,5.25
2022-12-18T01:39:58.211Z,5.15
2022-12-18T01:42:24.744Z,4.97
2022-12-18T01:45:01.407Z,4.97
2022-12-18T01:47:42.908Z,4.40
2022-12-18T01:50:15.784Z,4.65
2022-12-18T01:52:44.658Z,4.93
2022-12-18T01:57:39.942Z,5.15
2022-12-18T02:00:12.465Z,5.15
2022-12-18T02:02:44.604Z,4.72
2022-12-18T02:05:15.110Z,5.38
2022-12-18T02:07:45.570Z,5.50
2022-12-18T02:10:30.161Z,5.07
2022-12-18T02:12:59.668Z,4.82
2022-12-18T02:15:39.623Z,5.47
2022-12-18T02:18:16.961Z,5.28
2022-12-18T02:20:52.777Z,5.30
2022-12-18T02:23:49.590Z,4.68
2022-12-18T02:26:25.174Z,5.30
2022-12-18T02:29:01.416Z,4.50
2022-12-18T02:31:36.480Z,4.72
2022-12-18T02:34:07.575Z,4.10
2022-12-18T02:36:41.163Z,5.85
2022-12-18T02:39:11.659Z,5.28
2022-12-18T02:41:43.587Z,5.25
2022-12-18T02:44:13.584Z,4.63
2022-12-18T02:46:44.548Z,5.03
2022-12-18T02:49:28.656Z,4.93
2022-12-18T02:52:08.384Z,5.00
2022-12-18T02:54:52.698Z,5.10
2022-12-18T02:57:34.385Z,4.82
2022-12-18T03:02:47.473Z,4.82
2022-12-18T03:05:36.205Z,4.75
2022-12-18T03:08:09.438Z,5.22
2022-12-18T03:10:50.478Z,4.30
2022-12-18T03:13:25.442Z,4.65
2022-12-18T03:15:56.981Z,4.93
2022-12-18T03:18:33.650Z,4.63
2022-12-18T03:21:03.703Z,4.65
2022-12-18T03:23:36.242Z,5.03
2022-12-18T03:26:08.952Z,4.90
2022-12-18T03:28:43.253Z,4.80
2022-12-18T03:31:12.229Z,5.53
2022-12-18T03:33:46.586Z,5.20
2022-12-18T03:36:15.405Z,4.30
2022-12-18T03:38:42.232Z,4.30
2022-12-18T03:41:19.217Z,4.88
2022-12-18T03:44:07.249Z,4.05
2022-12-18T03:46:47.733Z,4.35
2022-12-18T03:49:24.416Z,4.35
2022-12-18T03:52:00.782Z,3.85
2022-12-18T03:54:29.491Z,4.50
2022-12-18T03:57:19.631Z,4.45
2022-12-18T03:59:53.891Z,4.00
2022-12-18T04:04:54.877Z,4.03
2022-12-18T04:07:23.305Z,4.63
2022-12-18T04:09:53.553Z,4.20
2022-12-18T04:12:24.725Z,4.28
2022-12-18T04:14:51.652Z,4.40
2022-12-18T04:17:18.494Z,4.25
2022-12-18T04:19:45.133Z,4.35
2022-12-18T04:22:12.164Z,4.70
2022-12-18T04:24:43.720Z,4.35
2022-12-18T04:27:17.773Z,3.72
2022-12-18T04:29:48.371Z,4.15
2022-12-18T04:32:15.679Z,4.28
2022-12-18T04:34:43.866Z,4.38
2022-12-18T04:37:10.524Z,3.78
2022-12-18T04:39:37.182Z,3.40
2022-12-18T04:42:09.414Z,4.10
2022-12-18T04:44:36.010Z,3.88
2022-12-18T04:47:02.480Z,4.22
2022-12-18T04:49:28.973Z,3.72
2022-12-18T04:51:55.519Z,4.30
2022-12-18T04:54:22.124Z,4.30
2022-12-18T04:56:48.587Z,4.38
2022-12-18T04:59:15.160Z,4.70
2022-12-18T05:01:41.717Z,4.07
2022-12-18T05:04:08.500Z,4.05
2022-12-18T05:06:35.201Z,3.67
2022-12-18T05:09:01.961Z,3.95
2022-12-18T05:11:28.444Z,4.32
2022-12-18T05:13:56.362Z,3.42
2022-12-18T05:16:23.135Z,3.50
2022-12-18T05:18:49.547Z,3.15
2022-12-18T05:21:16.159Z,3.63
2022-12-18T05:23:43.275Z,3.40
2022-12-18T05:26:14.940Z,3.58
2022-12-18T05:28:41.393Z,3.17
2022-12-18T05:31:07.922Z,3.28
2022-12-18T05:33:35.842Z,3.10
2022-12-18T05:36:04.494Z,3.45
2022-12-18T05:38:32.778Z,3.30
2022-12-18T05:40:59.728Z,3.33
2022-12-18T05:43:27.901Z,3.30
2022-12-18T05:45:55.236Z,3.22
2022-12-18T05:48:22.298Z,3.20
2022-12-18T05:50:49.905Z,3.42
2022-12-18T05:53:20.159Z,3.75
2022-12-18T05:55:47.282Z,4.00
2022-12-18T05:58:15.344Z,3.25
2022-12-18T06:00:43.695Z,3.22
2022-12-18T06:03:11.309Z,3.35
2022-12-18T06:05:43.597Z,3.35
2022-12-18T06:08:10.271Z,3.42
2022-12-18T06:10:37.580Z,3.30
2022-12-18T06:13:04.774Z,3.20
2022-12-18T06:15:31.251Z,3.13
2022-12-18T06:17:57.925Z,3.15
2022-12-18T06:20:26.919Z,4.28
2022-12-18T06:22:57.071Z,3.38
2022-12-18T06:25:23.671Z,3.90
2022-12-18T06:27:50.090Z,3.20
2022-12-18T06:30:17.025Z,3.80
2022-12-18T06:32:43.632Z,3.72
2022-12-18T06:35:10.464Z,3.35
2022-12-18T06:37:37.275Z,3.70
2022-12-18T06:40:04.021Z,3.00
2022-12-18T06:42:30.487Z,3.55
2022-12-18T06:44:56.995Z,3.60
2022-12-18T06:47:23.392Z,3.47
2022-12-18T06:49:49.829Z,3.92
2022-12-18T06:52:16.489Z,3.80
2022-12-18T06:54:42.943Z,4.65
2022-12-18T06:57:09.558Z,4.60
2022-12-18T06:59:36.291Z,4.28
2022-12-18T07:02:02.902Z,3.97
2022-12-18T07:04:32.241Z,4.28
2022-12-18T07:06:58.906Z,3.47
2022-12-18T07:09:25.648Z,3.67
2022-12-18T07:11:53.425Z,3.50
2022-12-18T07:14:20.816Z,3.90
2022-12-18T07:16:47.604Z,3.53
2022-12-18T07:19:14.381Z,4.05
2022-12-18T07:21:41.229Z,3.90
2022-12-18T07:24:08.102Z,4.20
2022-12-18T07:26:34.561Z,3.60
2022-12-18T07:29:01.179Z,4.30
2022-12-18T07:31:28.405Z,4.28
2022-12-18T07:33:55.136Z,3.63
2022-12-18T07:36:21.672Z,3.90
2022-12-18T07:38:49.266Z,4.10
2022-12-18T07:41:16.115Z,4.55
2022-12-18T07:43:43.513Z,4.70
2022-12-18T07:46:11.784Z,4.88
2022-12-18T07:48:41.305Z,4.88
2022-12-18T07:51:08.468Z,4.82
2022-12-18T07:53:36.913Z,5.93
2022-12-18T07:58:54.804Z,5.45
2022-12-18T08:01:21.654Z,5.20
2022-12-18T08:03:48.491Z,4.90
2022-12-18T08:06:16.464Z,5.50
2022-12-18T08:08:43.242Z,6.15
2022-12-18T08:11:10.077Z,5.53
2022-12-18T08:13:37.064Z,5.00
2022-12-18T08:16:06.881Z,4.55
2022-12-18T08:18:34.356Z,4.95
2022-12-18T08:21:10.711Z,4.32
2022-12-18T08:23:42.543Z,4.63
2022-12-18T08:26:09.612Z,4.60
2022-12-18T08:28:36.870Z,4.55
2022-12-18T08:31:03.584Z,5.03
2022-12-18T08:33:30.130Z,4.47
2022-12-18T08:35:56.600Z,6.00
2022-12-18T08:38:24.408Z,5.18
2022-12-18T08:40:55.134Z,5.07
2022-12-18T08:43:40.759Z,5.43
2022-12-18T08:46:08.743Z,4.97
2022-12-18T08:48:35.521Z,4.40
2022-12-18T08:51:02.041Z,5.03
2022-12-18T08:53:34.072Z,4.72
2022-12-18T08:56:02.461Z,5.15
2022-12-18T08:58:29.006Z,4.53
2022-12-18T09:01:01.113Z,4.50
2022-12-18T09:03:27.682Z,5.00
2022-12-18T09:05:54.245Z,5.57
2022-12-18T09:08:20.894Z,4.95
2022-12-18T09:10:49.715Z,4.57
2022-12-18T09:15:44.224Z,4.13
2022-12-18T09:18:10.812Z,4.65
2022-12-18T09:20:38.178Z,4.28
2022-12-18T09:23:05.771Z,4.40
2022-12-18T09:25:34.264Z,4.03
2022-12-18T09:28:01.178Z,4.55
2022-12-18T09:30:28.631Z,5.03
2022-12-18T09:32:55.187Z,4.28
2022-12-18T09:35:21.889Z,4.38
2022-12-18T09:37:48.581Z,4.63
2022-12-18T09:40:18.951Z,4.47
2022-12-18T09:42:49.102Z,4.55
2022-12-18T09:45:17.372Z,5.22
2022-12-18T09:47:46.791Z,5.22
2022-12-18T09:50:22.561Z,5.15
2022-12-18T09:52:54.488Z,5.50
2022-12-18T09:55:36.833Z,4.68
2022-12-18T09:58:32.052Z,5.43
2022-12-18T10:00:59.413Z,4.57
2022-12-18T10:03:25.941Z,4.70
2022-12-18T10:06:05.320Z,4.88
2022-12-18T10:08:47.138Z,4.30
2022-12-18T10:11:35.206Z,4.72
2022-12-18T10:14:40.683Z,5.05
2022-12-18T10:17:18.605Z,4.35
2022-12-18T10:19:51.230Z,5.60
2022-12-18T10:22:25.892Z,4.35
2022-12-18T10:25:16.847Z,5.10
2022-12-18T10:27:43.750Z,5.18
2022-12-18T10:30:16.181Z,4.88
2022-12-18T10:32:43.052Z,5.00
2022-12-18T10:35:21.721Z,4.57
2022-12-18T10:38:22.756Z,5.40
2022-12-18T10:43:37.607Z,4.53
2022-12-18T10:46:11.328Z,4.75
2022-12-18T10:48:48.360Z,5.10
2022-12-18T10:51:38.250Z,5.28
2022-12-18T10:54:27.415Z,5.00
2022-12-18T10:57:33.685Z,5.72
2022-12-18T11:00:21.282Z,4.15
2022-12-18T11:02:48.842Z,5.03
2022-12-18T11:05:37.926Z,5.43
2022-12-18T11:08:04.941Z,4.93
2022-12-18T11:10:41.876Z,5.05
2022-12-18T11:13:37.721Z,5.30
2022-12-18T11:16:04.711Z,5.22
2022-12-18T11:18:34.437Z,4.55
2022-12-18T11:21:11.021Z,5.13
2022-12-18T11:23:52.820Z,5.47
2022-12-18T11:29:08.120Z,4.93
2022-12-18T11:31:34.786Z,4.18
2022-12-18T11:34:31.274Z,4.70
2022-12-18T11:37:00.893Z,4.85
2022-12-18T11:39:42.190Z,4.90
2022-12-18T11:42:12.269Z,4.32
2022-12-18T11:44:49.599Z,5.55
2022-12-18T11:47:35.135Z,5.35
2022-12-18T11:50:03.954Z,5.40
2022-12-18T11:55:12.912Z,5.25
2022-12-18T11:57:43.942Z,5.03
2022-12-18T12:00:17.949Z,5.45
2022-12-18T12:03:14.722Z,5.22
2022-12-18T12:06:15.534Z,5.97
2022-12-18T12:09:13.401Z,5.72
2022-12-18T12:12:00.103Z,5.85
2022-12-18T12:14:54.295Z,5.75
2022-12-18T12:17:46.439Z,6.15
2022-12-18T12:20:41.047Z,5.65
2022-12-18T12:25:42.829Z,5.53
2022-12-18T12:28:35.013Z,6.00
2022-12-18T12:31:04.581Z,6.50
2022-12-18T12:33:43.476Z,6.10
2022-12-18T12:36:27.515Z,5.80
2022-12-18T12:38:58.580Z,7.03
2022-12-18T12:41:47.042Z,6.78
2022-12-18T12:44:43.134Z,6.32
2022-12-18T12:47:21.564Z,5.55
2022-12-18T12:49:50.819Z,6.82
2022-12-18T12:52:42.754Z,6.78
2022-12-18T12:55:18.262Z,6.68
2022-12-18T12:57:56.403Z,7.35
2022-12-18T13:00:25.206Z,6.80
2022-12-18T13:03:04.480Z,7.30
2022-12-18T13:05:39.695Z,7.25
2022-12-18T13:08:12.035Z,5.95
2022-12-18T13:10:40.120Z,7.13
2022-12-18T13:13:16.469Z,7.10
2022-12-18T13:15:46.883Z,6.85
2022-12-18T13:18:24.809Z,6.95
2022-12-18T13:21:03.324Z,6.88
2022-12-18T13:23:37.700Z,6.78
2022-12-18T13:26:09.186Z,7.75
2022-12-18T13:28:47.818Z,7.32
2022-12-18T13:31:16.206Z,7.32
2022-12-18T13:36:35.233Z,7.20
2022-12-18T13:39:35.154Z,7.85
2022-12-18T13:42:08.466Z,7.78
2022-12-18T13:44:41.007Z,7.93
2022-12-18T13:47:33.281Z,7.93
2022-12-18T13:50:02.440Z,8.13
2022-12-18T13:52:34.374Z,8.38
2022-12-18T13:55:03.194Z,6.95
2022-12-18T13:57:31.102Z,8.15
2022-12-18T13:59:58.721Z,8.55
2022-12-18T14:02:28.352Z,7.30
2022-12-18T14:04:56.437Z,7.85
2022-12-18T14:07:26.204Z,8.75
2022-12-18T14:10:06.453Z,8.40
2022-12-18T14:13:00.893Z,8.05
2022-12-18T14:15:37.983Z,9.32
2022-12-18T14:18:24.606Z,8.73
2022-12-18T14:20:53.591Z,8.48
2022-12-18T14:23:37.360Z,7.97
2022-12-18T14:26:22.320Z,8.95
2022-12-18T14:28:49.281Z,8.60
2022-12-18T14:31:20.624Z,8.25
2022-12-18T14:33:47.733Z,8.45
2022-12-18T14:36:19.891Z,9.18
2022-12-18T14:38:54.579Z,8.45
2022-12-18T14:41:22.322Z,9.35
2022-12-18T14:43:54.872Z,8.85
2022-12-18T14:46:34.532Z,9.18
2022-12-18T14:49:06.695Z,9.23
2022-12-18T14:51:35.301Z,8.70
2022-12-18T14:54:15.712Z,9.57
2022-12-18T14:56:51.126Z,10.00
2022-12-18T15:02:05.909Z,9.43
2022-12-18T15:04:36.098Z,9.93
2022-12-18T15:07:12.312Z,10.25
2022-12-18T15:09:41.203Z,9.55
2022-12-18T15:14:52.094Z,9.02
2022-12-18T15:17:23.303Z,9.68
2022-12-18T15:19:54.800Z,9.80
2022-12-18T15:22:30.099Z,9.30
2022-12-18T15:24:58.989Z,9.32
2022-12-18T15:30:19.124Z,9.18
2022-12-18T15:32:45.981Z,9.38
2022-12-18T15:35:12.530Z,9.60
2022-12-18T15:37:38.980Z,9.65
2022-12-18T15:40:07.424Z,9.32
2022-12-18T15:42:52.289Z,9.57
2022-12-18T15:45:19.245Z,9.50
2022-12-18T15:47:46.715Z,10.40
2022-12-18T15:50:13.274Z,9.32
2022-12-18T15:52:46.721Z,10.35
2022-12-18T15:55:33.630Z,10.35
2022-12-18T15:58:01.519Z,10.63
2022-12-18T16:00:28.413Z,9.57
2022-12-18T16:02:55.060Z,9.90
2022-12-18T16:05:22.926Z,10.18
2022-12-18T16:07:49.619Z,10.52
2022-12-18T16:10:16.215Z,10.95
2022-12-18T16:12:43.467Z,10.45
2022-12-18T16:15:14.345Z,9.85
2022-12-18T16:17:41.680Z,10.35
2022-12-18T16:20:16.944Z,12.57
2022-12-18T16:22:46.769Z,10.88
2022-12-18T16:25:32.062Z,10.13
2022-12-18T16:27:59.151Z,10.60
2022-12-18T16:30:32.716Z,11.63
2022-12-18T16:33:05.399Z,11.75
2022-12-18T16:35:33.498Z,11.15
2022-12-18T16:37:59.933Z,10.38
2022-12-18T16:40:26.401Z,11.07
2022-12-18T16:42:52.953Z,11.18
2022-12-18T16:45:20.108Z,12.30
2022-12-18T16:47:46.679Z,11.20
2022-12-18T16:50:13.254Z,11.40
2022-12-18T16:52:39.959Z,11.95
2022-12-18T16:55:07.408Z,12.13
2022-12-18T16:57:33.996Z,11.77
2022-12-18T17:00:05.050Z,12.70
2022-12-18T17:02:32.815Z,12.45
2022-12-18T17:04:59.563Z,12.13
2022-12-18T17:07:28.032Z,12.30
2022-12-18T17:09:54.870Z,12.05
2022-12-18T17:12:21.807Z,12.98
2022-12-18T17:14:48.529Z,11.65
2022-12-18T17:17:23.793Z,13.20
2022-12-18T17:22:17.457Z,12.00
2022-12-18T17:24:44.170Z,11.43
2022-12-18T17:27:10.721Z,12.20
2022-12-18T17:29:41.164Z,13.55
2022-12-18T17:32:12.106Z,13.75
2022-12-18T17:34:40.999Z,13.27
2022-12-18T17:37:07.893Z,12.43
2022-12-18T17:39:34.507Z,13.45
2022-12-18T17:42:01.413Z,12.95
2022-12-18T17:44:28.057Z,13.32
2022-12-18T17:46:54.566Z,11.65
2022-12-18T17:49:21.709Z,13.18
2022-12-18T17:51:48.932Z,13.23
2022-12-18T17:54:15.578Z,14.18
2022-12-18T17:56:42.054Z,13.27
2022-12-18T17:59:08.995Z,13.05
2022-12-18T18:01:40.950Z,14.13
2022-12-18T18:04:10.988Z,13.77
2022-12-18T18:06:39.026Z,13.85
2022-12-18T18:09:06.704Z,12.65
2022-12-18T18:11:57.176Z,13.38
2022-12-18T18:14:23.678Z,13.45
2022-12-18T18:16:52.148Z,12.55
2022-12-18T18:19:22.148Z,13.48
2022-12-18T18:21:50.393Z,14.48
2022-12-18T18:24:20.830Z,13.38
2022-12-18T18:26:47.498Z,13.15
2022-12-18T18:29:17.250Z,14.32
2022-12-18T18:31:43.953Z,14.50
2022-12-18T18:34:16.342Z,14.45
2022-12-18T18:36:42.988Z,14.93
2022-12-18T18:39:10.068Z,13.90
2022-12-18T18:41:37.068Z,15.48
2022-12-18T18:44:03.975Z,14.07
2022-12-18T18:46:30.582Z,14.40
2022-12-18T18:48:57.228Z,14.70
2022-12-18T18:51:24.309Z,14.23
2022-12-18T18:53:52.766Z,13.65
2022-12-18T18:57:04.110Z,14.32
2022-12-18T18:59:09.357Z,15.65
2022-12-18T19:01:36.407Z,13.45
2022-12-18T19:04:05.007Z,15.13
2022-12-18T19:06:31.900Z,14.05
2022-12-18T19:09:02.817Z,14.52
2022-12-18T19:11:49.062Z,15.23
2022-12-18T19:14:16.474Z,13.82
2022-12-18T19:16:45.503Z,13.90
2022-12-18T19:19:13.171Z,12.88
2022-12-18T19:21:41.162Z,14.48
2022-12-18T19:24:08.076Z,14.68
2022-12-18T19:29:07.230Z,15.52
2022-12-18T19:31:36.323Z,14.13
2022-12-18T19:34:05.181Z,13.63
2022-12-18T19:36:32.835Z,13.88
2022-12-18T19:39:01.686Z,14.43
2022-12-18T19:41:29.155Z,14.40
2022-12-18T19:43:58.593Z,14.02
2022-12-18T19:46:26.595Z,14.45
2022-12-18T19:48:53.624Z,15.25
2022-12-18T19:51:23.073Z,14.23
2022-12-18T19:53:56.418Z,14.60
2022-12-18T19:58:54.049Z,12.95
2022-12-18T20:01:22.288Z,14.20
2022-12-18T20:03:52.246Z,15.25
2022-12-18T20:06:23.720Z,13.27
2022-12-18T20:08:51.898Z,14.35
2022-12-18T20:11:20.811Z,14.93
2022-12-18T20:13:47.454Z,15.43
2022-12-18T20:16:14.050Z,15.15
2022-12-18T20:18:40.686Z,13.30
2022-12-18T20:21:13.617Z,12.60
2022-12-18T20:23:40.961Z,14.77
2022-12-18T20:26:07.803Z,14.57
2022-12-18T20:28:35.678Z,14.43
2022-12-18T20:31:06.536Z,14.02
2022-12-18T20:33:33.202Z,14.82
2022-12-18T20:36:07.972Z,14.27
2022-12-18T20:41:04.808Z,13.60
2022-12-18T20:43:31.488Z,15.43
2022-12-18T20:46:06.111Z,13.90
2022-12-18T20:48:33.439Z,14.57
2022-12-18T20:51:03.701Z,13.93
2022-12-18T20:53:30.658Z,14.20
2022-12-18T20:55:57.243Z,13.73
2022-12-18T20:58:24.285Z,13.07
2022-12-18T21:01:01.799Z,15.45
2022-12-18T21:03:28.748Z,13.95
2022-12-18T21:05:55.248Z,14.68
2022-12-18T21:08:21.706Z,14.52
2022-12-18T21:10:48.362Z,14.80
2022-12-18T21:13:16.220Z,14.05
2022-12-18T21:15:43.653Z,14.65
2022-12-18T21:18:10.381Z,14.65
2022-12-18T21:20:37.170Z,13.75
2022-12-18T21:23:15.883Z,12.80
2022-12-18T21:25:44.404Z,13.43
2022-12-18T21:28:12.205Z,12.88
2022-12-18T21:30:38.843Z,13.77
2022-12-18T21:33:05.492Z,14.45
2022-12-18T21:35:32.242Z,14.68
2022-12-18T21:37:58.779Z,13.48
2022-12-18T21:40:25.510Z,13.90
2022-12-18T21:43:11.272Z,12.07
2022-12-18T21:45:44.037Z,14.23
2022-12-18T21:48:12.289Z,14.10
2022-12-18T21:50:39.016Z,13.02
2022-12-18T21:53:05.667Z,14.57
2022-12-18T21:55:32.167Z,14.30
2022-12-18T21:57:59.125Z,15.32
2022-12-18T22:00:25.601Z,13.80
2022-12-18T22:03:09.424Z,14.88
2022-12-18T22:05:38.723Z,13.05
2022-12-18T22:08:06.688Z,13.85
2022-12-18T22:10:33.891Z,13.20
2022-12-18T22:13:00.735Z,13.55
2022-12-18T22:15:27.352Z,14.45
2022-12-18T22:17:56.932Z,14.10
2022-12-18T22:20:26.746Z,14.15
2022-12-18T22:22:53.506Z,14.50
2022-12-18T22:25:20.026Z,14.38
2022-12-18T22:28:07.111Z,14.65
2022-12-18T22:30:33.755Z,12.63
2022-12-18T22:33:00.188Z,13.80
2022-12-18T22:35:26.667Z,14.27
2022-12-18T22:37:53.198Z,15.00
2022-12-18T22:40:25.731Z,12.80
2022-12-18T22:42:56.270Z,13.55
2022-12-18T22:45:23.377Z,13.63
2022-12-18T22:47:50.333Z,13.35
2022-12-18T22:50:16.745Z,13.60
2022-12-18T22:52:43.311Z,13.50
2022-12-18T22:55:09.728Z,13.73
2022-12-18T22:57:36.616Z,14.32
2022-12-18T23:00:06.025Z,12.93
2022-12-18T23:02:32.700Z,13.20
2022-12-18T23:04:59.526Z,13.75
2022-12-18T23:07:26.169Z,14.43
2022-12-18T23:09:58.419Z,13.32
2022-12-18T23:12:27.319Z,13.05
2022-12-18T23:14:54.105Z,13.00
2022-12-18T23:17:20.537Z,13.52
2022-12-18T23:19:49.223Z,12.68
2022-12-18T23:22:17.199Z,13.68
2022-12-18T23:24:44.244Z,14.43
2022-12-18T23:27:11.696Z,12.35
2022-12-18T23:29:39.353Z,13.43
2022-12-18T23:32:06.288Z,13.68
2022-12-18T23:34:33.056Z,14.02
2022-12-18T23:37:01.032Z,12.02
2022-12-18T23:39:29.580Z,14.05
2022-12-18T23:42:00.033Z,13.13
2022-12-18T23:44:27.298Z,13.40
2022-12-18T23:46:54.050Z,13.23
2022-12-18T23:49:20.760Z,14.07
2022-12-18T23:51:47.205Z,12.95
2022-12-18T23:54:13.829Z,13.05
2022-12-18T23:56:40.402Z,14.15
2022-12-18T23:59:06.937Z,12.65
